• Join FlightAware (Why Join?)
  • Login
  • US Flag 
04:31PM EST


 

Airport Tracker/Info


-or-


 

Live Flight TrackerFlight Track Log ✈ N552XJ ✈ 18-Apr-2013 ✈ KBED - KTEB

Flight Track Log - Related Links

Times and Time Zones

All times are in EDT time to prevent confusion due to time zone crossing. See the N552XJ flight status page for this flight to view local times or setup timezone preferences in your user account.

Time Position Orientation Groundspeed Altitude Reporting Facility
EDT Latitude Longitude Course Direction KTS MPH feet Rate Location/Type
10:33PM 42.4667 -71.3333 270° West 157 181 2,400  Level KA90
10:35PM 42.3714 -71.4986 232° Southwest 252 290 10,100 2,880 Climbing Boston Center
10:36PM 42.3600 -71.6169 263° West 295 339 12,600 2,760 Climbing Boston Center
10:37PM 42.3483 -71.7433 263° West 331 381 15,600 1,740 Climbing Boston Center
10:38PM 42.3344 -71.8728 262° West 336 387 16,100 180 Climbing Boston Center
10:39PM 42.3183 -72.0019 260° West 358 412 16,000 -60 Descending Boston Center
10:40PM 42.3061 -72.1342 263° West 358 412 16,000  Level Boston Center
10:41PM 42.2919 -72.2661 262° West 353 406 16,000  Level Boston Center
10:42PM 42.2775 -72.3953 261° West 353 406 16,000  Level Boston Center
10:43PM 42.2608 -72.5269 260° West 353 406 16,000  Level Boston Center
10:44PM 42.2500 -72.6561 264° West 353 406 16,000  Level Boston Center
10:45PM 42.2353 -72.7850 261° West 353 406 16,000  Level Boston Center
10:46PM 42.2203 -72.9167 261° West 353 406 16,000  Level Boston Center
10:47PM 42.1861 -73.0397 249° West 348 400 16,000 -480 Level Boston Center
10:48PM 42.1356 -73.1539 239° Southwest 353 406 15,100 -1,320 Descending Boston Center
10:49PM 42.0828 -73.2597 236° Southwest 352 405 13,500 -1,500 Descending Boston Center
10:50PM 42.0361 -73.3569 237° Southwest 347 399 12,100 -1,080 Descending Boston Center
10:51PM 41.9831 -73.4622 236° Southwest 334 384 11,400 -840 Descending Boston Center
10:52PM 41.9406 -73.5481 236° Southwest 325 374 10,500 -720 Descending Boston Center
10:53PM 41.8853 -73.6531 235° Southwest 319 367 10,000 -300 Descending Boston Center
10:54PM 41.8447 -73.7386 238° Southwest 319 367 10,000  Level Boston Center
10:55PM 41.7914 -73.8433 236° Southwest 319 367 10,000  Level Boston Center
10:56PM 41.7486 -73.9289 236° Southwest 319 367 10,000  Level Boston Center
10:58PM 41.6867 -74.0525 236° Southwest 319 367 10,000  Level Boston Center
10:59PM 41.6311 -74.1425 230° Southwest 319 367 10,000  Level Boston Center
11:00PM 41.5733 -74.2272 228° Southwest 314 361 10,000  Level Boston Center
11:01PM 41.5200 -74.3061 228° Southwest 304 350 10,000 -780 Level Boston Center
11:02PM 41.4772 -74.3742 230° Southwest 256 295 8,500 -1,200 Descending Boston Center
11:04PM 41.3667 -74.5333 227° Southwest 231 266 6,000 -780 Descending New York TRACON
11:05PM 41.3333 -74.5833 228° Southwest 233 268 6,000 -600 Level New York TRACON
11:06PM 41.2667 -74.6000 191° South 245 282 4,900 -1,140 Descending New York TRACON
11:07PM 41.2333 -74.5167 118° Southeast 251 289 3,900 -960 Descending New York TRACON
11:08PM 41.2000 -74.4333 118° Southeast 265 305 3,000 -480 Descending New York TRACON
11:09PM 41.1667 -74.3667 124° Southeast 230 265 3,000  Level New York TRACON
11:10PM 41.1333 -74.2833 118° Southeast 257 296 3,000  Level New York TRACON
11:11PM 41.1000 -74.2000 118° Southeast 251 289 3,000 -120 Level New York TRACON
11:12PM 41.0667 -74.1333 124° Southeast 236 272 2,800 -480 Descending New York TRACON
11:13PM 41.0333 -74.0667 124° Southeast 200 230 2,000 -780 Descending New York TRACON